createdAt,value
2019-06-08T00:02:46.097Z,11.70
2019-06-08T00:05:34.536Z,11.55
2019-06-08T00:08:24.224Z,11.15
2019-06-08T00:11:12.851Z,11.85
2019-06-08T00:14:01.358Z,11.40
2019-06-08T00:16:50.152Z,10.63
2019-06-08T00:19:38.937Z,10.58
2019-06-08T00:22:27.251Z,10.82
2019-06-08T00:25:15.936Z,10.10
2019-06-08T00:28:05.389Z,10.05
2019-06-08T00:30:53.780Z,10.48
2019-06-08T00:33:42.303Z,10.48
2019-06-08T00:36:30.770Z,9.83
2019-06-08T00:39:19.280Z,10.10
2019-06-08T00:42:07.775Z,9.60
2019-06-08T00:44:56.391Z,9.63
2019-06-08T00:47:48.051Z,9.00
2019-06-08T00:50:35.128Z,9.40
2019-06-08T00:53:23.475Z,9.68
2019-06-08T00:56:12.229Z,9.58
2019-06-08T00:59:00.719Z,9.58
2019-06-08T01:01:50.299Z,9.98
2019-06-08T01:04:38.648Z,9.65
2019-06-08T01:07:27.066Z,9.85
2019-06-08T01:10:16.026Z,9.58
2019-06-08T01:13:04.760Z,10.05
2019-06-08T01:15:55.414Z,9.50
2019-06-08T01:18:43.800Z,9.93
2019-06-08T01:21:32.271Z,9.38
2019-06-08T01:24:21.603Z,10.00
2019-06-08T01:27:10.180Z,9.90
2019-06-08T01:29:59.052Z,9.80
2019-06-08T01:32:47.824Z,10.25
2019-06-08T01:35:36.303Z,10.32
2019-06-08T01:38:25.133Z,9.93
2019-06-08T01:41:13.631Z,9.88
2019-06-08T01:44:02.554Z,9.58
2019-06-08T01:46:50.960Z,10.10
2019-06-08T01:49:39.714Z,9.83
2019-06-08T01:52:28.876Z,10.00
2019-06-08T01:55:17.595Z,10.40
2019-06-08T01:58:06.467Z,9.75
2019-06-08T02:00:54.993Z,10.50
2019-06-08T02:03:43.374Z,10.40
2019-06-08T02:06:32.449Z,10.55
2019-06-08T02:09:21.307Z,9.90
2019-06-08T02:12:10.196Z,10.63
2019-06-08T02:14:58.405Z,10.88
2019-06-08T02:17:46.901Z,10.70
2019-06-08T02:20:35.428Z,11.70
2019-06-08T02:23:23.905Z,10.50
2019-06-08T02:26:12.770Z,11.40
2019-06-08T02:29:01.583Z,11.48
2019-06-08T02:31:50.029Z,11.55
2019-06-08T02:34:38.631Z,11.93
2019-06-08T02:37:28.677Z,12.07
2019-06-08T02:40:17.775Z,11.95
2019-06-08T02:43:06.565Z,12.07
2019-06-08T02:45:55.251Z,12.20
2019-06-08T02:49:02.270Z,11.65
2019-06-08T02:51:34.337Z,12.73
2019-06-08T02:54:23.786Z,12.20
2019-06-08T02:57:14.882Z,12.63
2019-06-08T03:00:04.177Z,12.10
2019-06-08T03:02:54.031Z,12.90
2019-06-08T03:05:43.308Z,12.20
2019-06-08T03:08:38.573Z,11.38
2019-06-08T03:11:27.159Z,11.25
2019-06-08T03:14:18.017Z,11.12
2019-06-08T03:17:06.633Z,11.48
2019-06-08T03:19:55.444Z,10.80
2019-06-08T03:22:44.353Z,11.18
2019-06-08T03:25:41.635Z,11.18
2019-06-08T03:28:23.091Z,10.28
2019-06-08T03:31:11.708Z,10.65
2019-06-08T03:34:00.228Z,10.63
2019-06-08T03:36:55.859Z,10.78
2019-06-08T03:39:39.039Z,10.48
2019-06-08T03:42:27.310Z,10.15
2019-06-08T03:45:15.747Z,10.30
2019-06-08T03:48:04.128Z,10.43
2019-06-08T03:50:52.544Z,10.40
2019-06-08T03:53:42.626Z,10.30
2019-06-08T03:56:31.401Z,9.83
2019-06-08T03:59:19.770Z,10.05
2019-06-08T04:02:08.374Z,10.08
2019-06-08T04:04:56.873Z,10.10
2019-06-08T04:07:46.431Z,10.03
2019-06-08T04:10:37.621Z,10.43
2019-06-08T04:13:26.325Z,10.35
2019-06-08T04:16:14.899Z,9.98
2019-06-08T04:19:03.621Z,10.75
2019-06-08T04:21:52.385Z,10.43
2019-06-08T04:24:42.307Z,10.25
2019-06-08T04:27:31.196Z,10.72
2019-06-08T04:30:19.954Z,10.23
2019-06-08T04:33:08.422Z,10.72
2019-06-08T04:35:57.057Z,10.30
2019-06-08T04:38:46.171Z,10.30
2019-06-08T04:41:35.823Z,10.20
2019-06-08T04:44:24.255Z,11.20
2019-06-08T04:47:15.489Z,10.93
2019-06-08T04:50:21.758Z,10.63
2019-06-08T04:52:55.961Z,10.00
2019-06-08T04:55:45.158Z,10.10
2019-06-08T04:58:34.440Z,10.28
2019-06-08T05:01:24.211Z,10.70
2019-06-08T05:04:12.633Z,10.15
2019-06-08T05:07:01.448Z,10.03
2019-06-08T05:09:50.642Z,10.80
2019-06-08T05:12:39.279Z,10.30
2019-06-08T05:15:28.042Z,10.20
2019-06-08T05:18:16.436Z,9.60
2019-06-08T05:21:05.024Z,9.90
2019-06-08T05:23:58.558Z,10.38
2019-06-08T05:26:45.235Z,10.45
2019-06-08T05:29:33.892Z,10.20
2019-06-08T05:32:22.315Z,10.18
2019-06-08T05:35:11.513Z,9.75
2019-06-08T05:38:00.114Z,9.70
2019-06-08T05:40:49.749Z,9.85
2019-06-08T05:43:39.711Z,9.90
2019-06-08T05:46:28.697Z,10.05
2019-06-08T05:49:19.630Z,9.15
2019-06-08T05:52:08.024Z,9.30
2019-06-08T05:54:56.199Z,10.08
2019-06-08T05:57:46.275Z,9.25
2019-06-08T06:00:35.046Z,9.15
2019-06-08T06:03:23.480Z,8.35
2019-06-08T06:06:12.203Z,8.30
2019-06-08T06:09:03.970Z,8.43
2019-06-08T06:11:52.752Z,7.87
2019-06-08T06:14:41.345Z,7.15
2019-06-08T06:17:30.143Z,8.10
2019-06-08T06:20:18.708Z,7.72
2019-06-08T06:23:07.292Z,6.83
2019-06-08T06:25:55.889Z,7.00
2019-06-08T06:28:45.633Z,6.97
2019-06-08T06:31:34.300Z,7.25
2019-06-08T06:34:22.916Z,7.00
2019-06-08T06:37:12.556Z,6.33
2019-06-08T06:40:00.973Z,6.00
2019-06-08T06:42:50.044Z,6.33
2019-06-08T06:45:39.583Z,6.10
2019-06-08T06:48:28.466Z,6.08
2019-06-08T06:53:22.873Z,5.83
2019-06-08T06:58:21.763Z,5.45
2019-06-08T07:01:22.795Z,5.20
2019-06-08T07:08:06.684Z,5.30
2019-06-08T07:10:55.201Z,5.12
2019-06-08T07:13:44.654Z,5.05
2019-06-08T07:16:33.253Z,4.90
2019-06-08T07:19:21.362Z,5.05
2019-06-08T07:22:10.036Z,5.60
2019-06-08T07:24:59.439Z,5.22
2019-06-08T07:27:48.391Z,5.60
2019-06-08T07:30:37.321Z,5.50
2019-06-08T07:33:26.122Z,5.62
2019-06-08T07:36:14.738Z,6.08
2019-06-08T07:39:07.196Z,5.90
2019-06-08T07:41:56.034Z,6.17
2019-06-08T07:44:46.843Z,5.87
2019-06-08T07:47:35.875Z,6.40
2019-06-08T07:50:24.480Z,6.30
2019-06-08T07:53:12.997Z,6.25
2019-06-08T07:56:01.782Z,5.70
2019-06-08T07:58:51.647Z,6.72
2019-06-08T08:01:40.389Z,6.22
2019-06-08T08:04:29.251Z,5.95
2019-06-08T08:07:17.718Z,5.37
2019-06-08T08:10:08.193Z,5.62
2019-06-08T08:12:56.972Z,6.03
2019-06-08T08:15:46.115Z,6.58
2019-06-08T08:18:34.356Z,6.28
2019-06-08T08:21:26.234Z,6.12
2019-06-08T08:24:12.365Z,6.90
2019-06-08T08:27:03.497Z,6.80
2019-06-08T08:29:51.432Z,7.03
2019-06-08T08:32:40.365Z,6.55
2019-06-08T08:35:29.130Z,6.55
2019-06-08T08:38:17.774Z,6.60
2019-06-08T08:41:08.293Z,6.03
2019-06-08T08:43:58.950Z,6.12
2019-06-08T08:46:48.605Z,6.30
2019-06-08T08:49:38.081Z,6.25
2019-06-08T08:52:34.495Z,6.22
2019-06-08T08:55:20.248Z,6.45
2019-06-08T08:58:08.402Z,5.80
2019-06-08T09:01:00.157Z,5.90
2019-06-08T09:03:48.169Z,5.70
2019-06-08T09:06:38.108Z,6.08
2019-06-08T09:09:28.838Z,6.20
2019-06-08T09:12:20.687Z,5.83
2019-06-08T09:15:09.739Z,6.25
2019-06-08T09:18:02.102Z,6.65
2019-06-08T09:20:49.781Z,6.25
2019-06-08T09:23:38.563Z,6.20
2019-06-08T09:26:31.273Z,6.75
2019-06-08T09:29:21.105Z,6.90
2019-06-08T09:32:14.631Z,6.83
2019-06-08T09:37:53.249Z,6.35
2019-06-08T09:40:42.100Z,6.60
2019-06-08T09:43:30.597Z,6.60
2019-06-08T09:46:22.471Z,6.28
2019-06-08T09:49:11.832Z,6.72
2019-06-08T09:52:03.226Z,6.40
2019-06-08T09:54:54.107Z,6.50
2019-06-08T10:00:31.193Z,6.58
2019-06-08T10:03:19.512Z,6.85
2019-06-08T10:06:11.600Z,6.28
2019-06-08T10:08:58.504Z,6.12
2019-06-08T10:11:47.059Z,6.12
2019-06-08T10:14:37.804Z,6.53
2019-06-08T10:17:27.770Z,5.92
2019-06-08T10:20:58.046Z,6.08
2019-06-08T10:24:00.997Z,6.40
2019-06-08T10:26:51.783Z,6.75
2019-06-08T10:29:43.322Z,6.67
2019-06-08T10:32:43.245Z,7.00
2019-06-08T10:35:33.738Z,7.67
2019-06-08T10:38:23.688Z,7.22
2019-06-08T10:42:19.076Z,7.75
2019-06-08T10:44:46.697Z,8.00
2019-06-08T10:47:47.760Z,7.80
2019-06-08T10:50:36.870Z,7.20
2019-06-08T10:53:25.542Z,7.55
2019-06-08T10:56:14.257Z,7.60
2019-06-08T10:59:05.055Z,7.15
2019-06-08T11:01:52.656Z,7.70
2019-06-08T11:04:43.363Z,7.42
2019-06-08T11:07:31.473Z,6.85
2019-06-08T11:10:20.011Z,7.00
2019-06-08T11:13:14.528Z,7.00
2019-06-08T11:16:00.441Z,6.72
2019-06-08T11:18:50.841Z,6.67
2019-06-08T11:21:38.663Z,6.85
2019-06-08T11:24:29.010Z,7.00
2019-06-08T11:27:18.734Z,7.40
2019-06-08T11:30:20.029Z,7.28
2019-06-08T11:33:02.127Z,6.75
2019-06-08T11:35:50.783Z,7.10
2019-06-08T11:38:39.307Z,6.83
2019-06-08T11:41:29.013Z,6.87
2019-06-08T11:44:19.268Z,7.70
2019-06-08T11:47:11.310Z,7.00
2019-06-08T11:49:57.816Z,7.12
2019-06-08T11:52:49.174Z,7.20
2019-06-08T11:55:38.474Z,7.15
2019-06-08T11:58:30.779Z,7.22
2019-06-08T12:01:19.663Z,7.55
2019-06-08T12:04:08.297Z,7.30
2019-06-08T12:06:58.396Z,7.17
2019-06-08T12:09:49.952Z,7.37
2019-06-08T12:12:38.497Z,7.53
2019-06-08T12:15:28.649Z,6.90
2019-06-08T12:18:18.173Z,7.15
2019-06-08T12:21:08.661Z,6.92
2019-06-08T12:23:56.195Z,7.22
2019-06-08T12:26:47.582Z,7.33
2019-06-08T12:29:35.365Z,7.15
2019-06-08T12:32:23.803Z,7.30
2019-06-08T12:35:13.606Z,9.10
2019-06-08T12:38:02.807Z,7.80
2019-06-08T12:40:51.559Z,8.40
2019-06-08T12:43:40.382Z,7.90
2019-06-08T12:46:28.989Z,8.40
2019-06-08T12:49:18.801Z,7.65
2019-06-08T12:52:08.668Z,7.85
2019-06-08T12:55:06.050Z,7.87
2019-06-08T12:57:51.735Z,8.00
2019-06-08T13:00:39.666Z,7.97
2019-06-08T13:03:29.883Z,7.58
2019-06-08T13:06:20.022Z,7.97
2019-06-08T13:09:11.291Z,7.40
2019-06-08T13:11:59.463Z,8.23
2019-06-08T13:14:50.530Z,7.62
2019-06-08T13:17:41.312Z,7.50
2019-06-08T13:20:29.953Z,7.47
2019-06-08T13:23:21.150Z,7.47
2019-06-08T13:26:10.890Z,7.30
2019-06-08T13:29:00.526Z,7.80
2019-06-08T13:31:49.676Z,7.72
2019-06-08T13:34:38.769Z,8.15
2019-06-08T13:37:27.641Z,7.50
2019-06-08T13:40:20.035Z,7.65
2019-06-08T13:43:08.294Z,7.78
2019-06-08T13:45:58.348Z,7.80
2019-06-08T13:48:48.198Z,8.00
2019-06-08T13:51:38.286Z,7.65
2019-06-08T13:54:30.880Z,7.62
2019-06-08T13:57:20.068Z,7.22
2019-06-08T14:00:08.965Z,7.40
2019-06-08T14:02:57.843Z,7.80
2019-06-08T14:05:47.953Z,7.42
2019-06-08T14:08:38.608Z,7.20
2019-06-08T14:11:28.087Z,7.17
2019-06-08T14:14:17.670Z,7.17
2019-06-08T14:17:08.487Z,7.10
2019-06-08T14:19:59.329Z,7.12
2019-06-08T14:22:50.377Z,7.00
2019-06-08T14:25:49.668Z,7.30
2019-06-08T14:28:28.958Z,6.70
2019-06-08T14:31:19.712Z,7.37
2019-06-08T14:34:10.000Z,7.00
2019-06-08T14:36:59.223Z,6.62
2019-06-08T14:39:48.741Z,6.12
2019-06-08T14:42:38.399Z,6.03
2019-06-08T14:45:30.972Z,6.58
2019-06-08T14:48:18.950Z,6.87
2019-06-08T14:51:08.779Z,6.40
2019-06-08T14:53:58.259Z,7.30
2019-06-08T14:56:47.180Z,6.83
2019-06-08T14:59:35.660Z,7.33
2019-06-08T15:02:25.996Z,6.60
2019-06-08T15:05:14.702Z,6.92
2019-06-08T15:08:03.288Z,7.30
2019-06-08T15:10:52.021Z,7.05
2019-06-08T15:13:40.770Z,8.00
2019-06-08T15:16:32.442Z,7.75
2019-06-08T15:19:20.250Z,7.95
2019-06-08T15:22:11.297Z,7.78
2019-06-08T15:24:59.345Z,7.53
2019-06-08T15:27:48.040Z,7.62
2019-06-08T15:30:38.083Z,7.78
2019-06-08T15:33:32.049Z,7.70
2019-06-08T15:36:20.258Z,8.08
2019-06-08T15:39:07.976Z,7.70
2019-06-08T15:41:59.921Z,7.55
2019-06-08T15:44:47.975Z,7.90
2019-06-08T15:47:40.533Z,7.62
2019-06-08T15:50:26.701Z,7.62
2019-06-08T15:53:15.208Z,7.92
2019-06-08T15:56:03.892Z,7.33
2019-06-08T15:58:54.103Z,7.28
2019-06-08T16:01:42.935Z,7.50
2019-06-08T16:04:31.815Z,7.33
2019-06-08T16:07:20.923Z,7.67
2019-06-08T16:10:09.578Z,7.60
2019-06-08T16:12:58.256Z,6.97
2019-06-08T16:15:46.898Z,7.45
2019-06-08T16:18:36.122Z,7.40
2019-06-08T16:21:25.328Z,7.05
2019-06-08T16:24:16.397Z,7.08
2019-06-08T16:27:05.366Z,6.97
2019-06-08T16:29:54.128Z,7.10
2019-06-08T16:32:42.578Z,7.12
2019-06-08T16:35:35.639Z,8.25
2019-06-08T16:38:24.200Z,7.47
2019-06-08T16:41:13.022Z,6.78
2019-06-08T16:44:01.892Z,7.00
2019-06-08T16:46:50.939Z,6.80
2019-06-08T16:49:39.763Z,7.50
2019-06-08T16:52:28.476Z,7.28
2019-06-08T16:55:16.955Z,6.58
2019-06-08T16:58:05.629Z,6.00
2019-06-08T17:00:54.437Z,6.55
2019-06-08T17:03:43.186Z,6.17
2019-06-08T17:06:31.593Z,5.90
2019-06-08T17:09:20.357Z,6.12
2019-06-08T17:12:09.169Z,6.37
2019-06-08T17:14:57.847Z,7.00
2019-06-08T17:17:46.685Z,7.50
2019-06-08T17:20:36.285Z,6.58
2019-06-08T17:23:24.804Z,6.80
2019-06-08T17:26:13.686Z,6.60
2019-06-08T17:29:02.197Z,6.50
2019-06-08T17:31:50.946Z,6.40
2019-06-08T17:34:40.267Z,6.22
2019-06-08T17:37:29.054Z,6.58
2019-06-08T17:40:17.689Z,6.78
2019-06-08T17:43:06.736Z,6.70
2019-06-08T17:45:55.028Z,6.90
2019-06-08T17:48:43.248Z,7.62
2019-06-08T17:51:32.793Z,7.30
2019-06-08T17:54:21.749Z,7.30
2019-06-08T17:57:10.433Z,7.20
2019-06-08T17:59:58.882Z,7.00
2019-06-08T18:02:48.387Z,7.70
2019-06-08T18:05:41.947Z,7.30
2019-06-08T18:08:28.211Z,7.17
2019-06-08T18:11:17.375Z,7.58
2019-06-08T18:14:13.636Z,7.45
2019-06-08T18:17:00.666Z,7.67
2019-06-08T18:19:52.782Z,8.23
2019-06-08T18:22:44.413Z,7.37
2019-06-08T18:25:34.429Z,7.22
2019-06-08T18:28:24.960Z,7.80
2019-06-08T18:31:15.382Z,7.28
2019-06-08T18:34:08.410Z,8.25
2019-06-08T18:36:59.817Z,8.10
2019-06-08T18:39:53.889Z,8.38
2019-06-08T18:42:48.461Z,8.50
2019-06-08T18:45:42.397Z,9.85
2019-06-08T18:48:30.190Z,8.88
2019-06-08T18:51:19.676Z,9.60
2019-06-08T18:54:14.460Z,9.88
2019-06-08T18:56:58.029Z,10.05
2019-06-08T18:59:50.950Z,10.30
2019-06-08T19:02:39.941Z,10.00
2019-06-08T19:05:27.943Z,10.05
2019-06-08T19:08:17.958Z,9.83
2019-06-08T19:11:08.128Z,9.68
2019-06-08T19:13:58.049Z,10.72
2019-06-08T19:16:54.203Z,10.05
2019-06-08T19:19:41.205Z,11.50
2019-06-08T19:22:29.965Z,10.85
2019-06-08T19:25:17.677Z,11.57
2019-06-08T19:28:07.798Z,10.93
2019-06-08T19:30:58.310Z,11.88
2019-06-08T19:33:51.319Z,11.15
2019-06-08T19:36:39.923Z,11.48
2019-06-08T19:39:28.289Z,12.07
2019-06-08T19:42:17.718Z,11.73
2019-06-08T19:45:08.585Z,12.05
2019-06-08T19:47:57.777Z,12.05
2019-06-08T19:50:47.306Z,11.33
2019-06-08T19:53:42.230Z,11.40
2019-06-08T19:56:28.164Z,11.10
2019-06-08T19:59:18.266Z,10.43
2019-06-08T20:02:08.678Z,10.53
2019-06-08T20:04:57.032Z,11.20
2019-06-08T20:07:45.353Z,11.18
2019-06-08T20:10:33.973Z,11.73
2019-06-08T20:13:22.642Z,11.60
2019-06-08T20:16:11.445Z,11.35
2019-06-08T20:19:00.149Z,11.88
2019-06-08T20:21:51.281Z,11.60
2019-06-08T20:24:38.798Z,11.40
2019-06-08T20:27:27.770Z,11.73
2019-06-08T20:30:17.476Z,12.00
2019-06-08T20:33:08.174Z,11.25
2019-06-08T20:35:58.425Z,11.80
2019-06-08T20:38:47.459Z,11.33
2019-06-08T20:41:37.636Z,12.50
2019-06-08T20:44:30.176Z,12.30
2019-06-08T20:47:20.596Z,12.13
2019-06-08T20:50:08.389Z,12.47
2019-06-08T20:52:57.857Z,12.60
2019-06-08T20:55:49.633Z,11.83
2019-06-08T20:58:38.172Z,11.68
2019-06-08T21:01:27.094Z,12.25
2019-06-08T21:04:18.080Z,12.05
2019-06-08T21:07:07.986Z,12.47
2019-06-08T21:09:58.139Z,12.10
2019-06-08T21:12:49.574Z,12.10
2019-06-08T21:15:38.228Z,12.00
2019-06-08T21:18:28.297Z,12.73
2019-06-08T21:21:17.583Z,13.25
2019-06-08T21:24:09.485Z,12.50
2019-06-08T21:27:02.956Z,13.65
2019-06-08T21:29:59.757Z,13.13
2019-06-08T21:32:42.791Z,13.45
2019-06-08T21:35:31.085Z,12.68
2019-06-08T21:38:23.593Z,12.75
2019-06-08T21:41:09.763Z,13.43
2019-06-08T21:44:01.663Z,14.05
2019-06-08T21:46:51.079Z,14.93
2019-06-08T21:49:38.626Z,13.93
2019-06-08T21:52:28.109Z,13.60
2019-06-08T21:55:17.771Z,12.50
2019-06-08T21:58:08.010Z,12.43
2019-06-08T22:00:59.164Z,13.43
2019-06-08T22:03:47.419Z,11.93
2019-06-08T22:06:37.337Z,12.13
2019-06-08T22:09:28.485Z,11.80
2019-06-08T22:12:17.381Z,11.97
2019-06-08T22:15:07.798Z,13.05
2019-06-08T22:17:59.682Z,12.63
2019-06-08T22:20:47.862Z,12.40
2019-06-08T22:23:36.864Z,12.25
2019-06-08T22:26:27.916Z,11.93
2019-06-08T22:29:18.116Z,12.45
2019-06-08T22:32:09.683Z,12.43
2019-06-08T22:35:00.143Z,13.08
2019-06-08T22:37:51.891Z,12.80
2019-06-08T22:40:47.906Z,12.93
2019-06-08T22:43:37.467Z,13.75
2019-06-08T22:46:26.483Z,13.35
2019-06-08T22:49:18.495Z,14.45
2019-06-08T22:52:08.231Z,13.93
2019-06-08T22:55:02.088Z,14.05
2019-06-08T22:57:47.915Z,15.20
2019-06-08T23:00:51.234Z,14.43
2019-06-08T23:03:27.145Z,15.10
2019-06-08T23:06:17.702Z,15.03
2019-06-08T23:09:08.681Z,15.25
2019-06-08T23:12:01.389Z,15.43
2019-06-08T23:14:47.125Z,15.18
2019-06-08T23:17:38.337Z,15.28
2019-06-08T23:20:27.602Z,16.97
2019-06-08T23:23:17.811Z,14.83
2019-06-08T23:26:10.210Z,15.50
2019-06-08T23:28:56.134Z,14.83
2019-06-08T23:31:45.055Z,14.47
2019-06-08T23:34:33.593Z,14.70
2019-06-08T23:37:22.325Z,14.30
2019-06-08T23:40:11.748Z,14.75
2019-06-08T23:43:01.590Z,14.55
2019-06-08T23:45:51.185Z,14.23
2019-06-08T23:48:39.889Z,13.72
2019-06-08T23:51:28.525Z,14.35
2019-06-08T23:54:18.370Z,14.03
2019-06-08T23:57:09.623Z,14.25
2019-06-08T23:59:59.479Z,14.07
